Time;durP1;ratioP1;P1;durP2;ratioP2;P2;SDS_P1;SDS_P2;PMS_P1;PMS_P2;Temp;Humidity;BMP_temperature;BMP_pressure;BME280_temperature;BME280_humidity;BME280_pressure;Samples;Min_cycle;Max_cycle;Signal;HPM_P1;HPM_P2
2022/11/10 00:00:19;;;;;;;0.10;0.10;;;10.40;99.90;;;;;;5086052;28;20040;-72
2022/11/10 00:02:45;;;;;;;0.20;0.20;;;10.40;99.90;;;;;;5080250;28;20101;-72
2022/11/10 00:05:12;;;;;;;0.20;0.20;;;10.40;99.90;;;;;;5074933;28;20053;-72
2022/11/10 00:07:39;;;;;;;0.10;0.10;;;10.30;99.90;;;;;;5077302;28;20124;-72
2022/11/10 00:10:05;;;;;;;0.20;0.20;;;10.30;99.90;;;;;;5074503;28;20052;-72
2022/11/10 00:12:32;;;;;;;0.15;0.15;;;10.30;99.90;;;;;;5083480;28;20801;-72
2022/11/10 00:17:43;;;;;;;0.20;0.20;;;10.50;99.90;;;;;;5082682;28;20456;-72
2022/11/10 00:20:09;;;;;;;0.20;0.20;;;10.30;99.90;;;;;;5068178;28;20041;-72
2022/11/10 00:22:37;;;;;;;0.20;0.20;;;10.30;99.90;;;;;;5085976;28;20040;-72
2022/11/10 00:25:03;;;;;;;0.20;0.20;;;10.20;99.90;;;;;;5084797;28;20495;-72
2022/11/10 00:27:30;;;;;;;0.20;0.20;;;10.20;99.90;;;;;;5080672;28;20044;-72
2022/11/10 00:29:56;;;;;;;0.20;0.20;;;10.20;99.90;;;;;;5080309;28;20037;-72
2022/11/10 00:32:21;;;;;;;0.20;0.20;;;10.40;99.90;;;;;;5080667;28;20062;-72
2022/11/10 00:34:47;;;;;;;0.20;0.20;;;10.20;99.90;;;;;;5089450;28;20040;-72
2022/11/10 00:37:13;;;;;;;0.20;0.20;;;10.20;99.90;;;;;;5068112;28;20048;-72
2022/11/10 00:39:38;;;;;;;0.20;0.20;;;10.20;99.90;;;;;;5070872;28;20062;-72
2022/11/10 00:42:05;;;;;;;0.20;0.20;;;10.30;99.90;;;;;;5087292;28;20558;-72
2022/11/10 00:44:30;;;;;;;0.13;0.13;;;10.20;99.90;;;;;;5085653;28;20079;-72
2022/11/10 00:46:56;;;;;;;0.20;0.20;;;10.20;99.90;;;;;;5078355;28;20067;-72
2022/11/10 00:49:21;;;;;;;0.13;0.13;;;10.20;99.90;;;;;;5086314;28;20086;-72
2022/11/10 00:51:47;;;;;;;0.20;0.20;;;10.30;99.90;;;;;;5088599;28;20395;-72
2022/11/10 00:54:13;;;;;;;0.20;0.20;;;10.30;99.90;;;;;;5086012;28;20439;-72
2022/11/10 00:56:38;;;;;;;0.20;0.20;;;10.30;99.90;;;;;;5080734;28;20595;-72
2022/11/10 00:59:04;;;;;;;0.10;0.10;;;10.30;99.90;;;;;;5084654;28;20116;-72
2022/11/10 01:01:29;;;;;;;0.15;0.15;;;10.20;99.90;;;;;;5072966;28;20051;-72
2022/11/10 01:03:55;;;;;;;0.20;0.20;;;10.30;99.90;;;;;;5081348;28;20480;-72
2022/11/10 01:06:21;;;;;;;0.17;0.17;;;10.20;99.90;;;;;;5077492;28;20044;-72
2022/11/10 01:08:47;;;;;;;0.20;0.20;;;10.20;99.90;;;;;;5083233;28;20040;-72
2022/11/10 01:11:14;;;;;;;0.17;0.17;;;10.50;99.90;;;;;;5078543;28;20391;-72
2022/11/10 01:13:40;;;;;;;0.17;0.17;;;10.30;99.90;;;;;;5082566;28;20040;-72
2022/11/10 01:16:09;;;;;;;0.10;0.10;;;10.20;99.90;;;;;;5086378;28;20131;-72
2022/11/10 01:18:35;;;;;;;0.20;0.20;;;10.30;99.90;;;;;;5086242;28;20043;-72
2022/11/10 01:21:01;;;;;;;0.13;0.13;;;10.20;99.90;;;;;;5082040;28;20080;-72
2022/11/10 01:23:27;;;;;;;0.17;0.17;;;10.20;99.90;;;;;;5087233;28;20075;-72
2022/11/10 01:26:00;;;;;;;0.13;0.13;;;10.20;99.90;;;;;;5086568;28;20522;-72
2022/11/10 01:28:26;;;;;;;0.20;0.20;;;10.20;99.90;;;;;;5081613;28;20047;-72
2022/11/10 01:31:06;;;;;;;0.20;0.20;;;10.20;99.90;;;;;;5077852;28;20056;-71
2022/11/10 01:33:32;;;;;;;0.20;0.20;;;10.10;99.90;;;;;;5086771;28;20380;-72
2022/11/10 01:35:58;;;;;;;0.10;0.10;;;10.30;99.90;;;;;;5079676;28;20051;-72
2022/11/10 01:38:29;;;;;;;0.20;0.20;;;10.10;99.90;;;;;;5071279;28;20403;-72
2022/11/10 01:40:56;;;;;;;0.20;0.20;;;10.10;99.90;;;;;;5069638;28;20435;-72
2022/11/10 01:43:22;;;;;;;0.13;0.13;;;10.10;99.90;;;;;;5082562;28;20044;-72
2022/11/10 01:45:50;;;;;;;0.20;0.20;;;10.10;99.90;;;;;;5085902;28;20127;-72
2022/11/10 01:48:58;;;;;;;0.10;0.10;;;10.40;99.90;;;;;;5081879;28;20036;-72
2022/11/10 01:51:29;;;;;;;0.20;0.20;;;10.10;99.90;;;;;;5043566;28;20048;-72
2022/11/10 01:54:09;;;;;;;0.20;0.20;;;10.10;99.90;;;;;;5085922;28;20578;-72
2022/11/10 01:56:39;;;;;;;0.10;0.10;;;10.10;99.90;;;;;;5074518;28;20052;-71
2022/11/10 01:59:11;;;;;;;0.20;0.20;;;10.40;99.90;;;;;;5077387;28;20036;-71
2022/11/10 02:01:39;;;;;;;0.17;0.17;;;10.10;99.90;;;;;;5077180;28;20332;-72
2022/11/10 02:04:09;;;;;;;0.20;0.20;;;10.10;99.90;;;;;;5066688;28;20080;-72
2022/11/10 02:06:41;;;;;;;0.20;0.20;;;10.10;99.90;;;;;;5091288;28;20396;-72
2022/11/10 02:09:07;;;;;;;0.20;0.20;;;10.10;99.90;;;;;;5086418;28;20393;-72
2022/11/10 02:11:34;;;;;;;0.20;0.20;;;10.40;99.90;;;;;;5085564;28;20032;-72
2022/11/10 02:14:01;;;;;;;0.10;0.10;;;10.10;99.90;;;;;;5078769;28;20047;-73
2022/11/10 02:16:27;;;;;;;0.20;0.20;;;10.10;99.90;;;;;;5085029;28;20119;-72
2022/11/10 02:18:55;;;;;;;0.20;0.20;;;10.40;99.90;;;;;;5087206;28;20055;-71
2022/11/10 02:21:21;;;;;;;0.20;0.20;;;10.10;99.90;;;;;;5085961;28;20044;-72
2022/11/10 02:23:52;;;;;;;0.20;0.20;;;10.10;99.90;;;;;;5105413;28;20081;-72
2022/11/10 02:26:21;;;;;;;0.20;0.20;;;10.40;99.90;;;;;;5084425;28;20071;-71
2022/11/10 02:28:47;;;;;;;0.10;0.10;;;10.10;99.90;;;;;;5090181;28;20052;-72
2022/11/10 02:31:13;;;;;;;0.20;0.20;;;10.10;99.90;;;;;;5083243;28;20067;-71
2022/11/10 02:33:39;;;;;;;0.10;0.10;;;10.20;99.90;;;;;;5076098;28;20122;-71
2022/11/10 02:36:05;;;;;;;0.20;0.20;;;10.10;99.90;;;;;;5084493;28;20619;-72
2022/11/10 02:38:31;;;;;;;0.20;0.20;;;10.10;99.90;;;;;;5071465;28;20084;-72
2022/11/10 02:40:57;;;;;;;0.20;0.20;;;10.40;99.90;;;;;;5086992;28;20136;-72
2022/11/10 02:43:25;;;;;;;0.10;0.10;;;10.20;99.90;;;;;;5082528;28;20066;-71
2022/11/10 02:45:54;;;;;;;0.20;0.20;;;10.10;99.90;;;;;;5082776;28;20052;-72
2022/11/10 02:48:19;;;;;;;0.10;0.10;;;10.10;99.90;;;;;;5083960;28;20411;-72
2022/11/10 02:50:45;;;;;;;0.20;0.20;;;10.10;99.90;;;;;;5077979;28;20349;-72
2022/11/10 02:53:11;;;;;;;0.20;0.20;;;10.10;99.90;;;;;;5082577;28;20032;-72
2022/11/10 02:55:37;;;;;;;0.10;0.10;;;10.10;99.90;;;;;;5090581;28;20089;-72
2022/11/10 02:58:02;;;;;;;0.20;0.20;;;10.30;99.90;;;;;;5090082;28;20430;-72
2022/11/10 03:00:28;;;;;;;0.20;0.20;;;10.10;99.90;;;;;;5096844;28;20508;-72
2022/11/10 03:02:58;;;;;;;0.10;0.10;;;10.10;99.90;;;;;;5091321;28;20513;-72
2022/11/10 03:05:24;;;;;;;0.20;0.20;;;10.10;99.90;;;;;;5089298;28;20040;-72
2022/11/10 03:08:00;;;;;;;0.20;0.20;;;10.10;99.90;;;;;;5093664;28;20047;-72
2022/11/10 03:10:28;;;;;;;0.10;0.10;;;10.10;99.90;;;;;;5085609;28;20530;-72
2022/11/10 03:12:56;;;;;;;0.20;0.20;;;10.10;99.90;;;;;;5087979;28;20055;-72
2022/11/10 03:15:23;;;;;;;0.20;0.20;;;10.10;99.90;;;;;;5082891;28;20048;-71
2022/11/10 03:17:49;;;;;;;0.10;0.10;;;10.10;99.90;;;;;;5080831;28;20076;-71
2022/11/10 03:20:15;;;;;;;0.20;0.20;;;10.30;99.90;;;;;;5077712;28;20040;-72
2022/11/10 03:22:41;;;;;;;0.20;0.20;;;10.10;99.90;;;;;;5078071;28;20694;-72
2022/11/10 03:25:08;;;;;;;0.15;0.15;;;10.10;99.90;;;;;;5081319;28;20067;-72
2022/11/10 03:27:33;;;;;;;0.20;0.20;;;10.00;99.90;;;;;;5077743;28;20105;-72
2022/11/10 03:29:59;;;;;;;0.20;0.20;;;10.10;99.90;;;;;;5086385;28;20482;-72
2022/11/10 03:32:24;;;;;;;0.20;0.20;;;10.00;99.90;;;;;;5088800;28;20034;-72
2022/11/10 03:34:50;;;;;;;0.20;0.20;;;10.00;99.90;;;;;;5080443;28;20055;-72
2022/11/10 03:37:16;;;;;;;0.13;0.13;;;10.30;99.90;;;;;;5087334;28;20032;-72
2022/11/10 03:39:41;;;;;;;0.20;0.20;;;10.10;99.90;;;;;;5087964;28;20511;-72
2022/11/10 03:42:07;;;;;;;0.10;0.10;;;10.10;99.90;;;;;;5089037;28;20040;-72
2022/11/10 03:44:32;;;;;;;0.20;0.20;;;10.00;99.90;;;;;;5088186;28;20047;-72
2022/11/10 03:46:58;;;;;;;0.20;0.20;;;10.00;99.90;;;;;;5089217;28;20071;-72
2022/11/10 03:49:24;;;;;;;0.10;0.10;;;10.00;99.90;;;;;;5089406;28;20064;-71
2022/11/10 03:51:49;;;;;;;0.20;0.20;;;10.00;99.90;;;;;;5080238;28;20468;-72
2022/11/10 03:54:15;;;;;;;0.10;0.10;;;10.00;99.90;;;;;;5092951;28;20073;-72
2022/11/10 03:56:40;;;;;;;0.10;0.10;;;10.10;99.90;;;;;;5088505;28;20124;-72
2022/11/10 03:59:06;;;;;;;0.15;0.15;;;10.00;99.90;;;;;;5076105;28;20044;-72
2022/11/10 04:01:32;;;;;;;0.20;0.20;;;10.10;99.90;;;;;;5075594;28;20083;-72
2022/11/10 04:03:57;;;;;;;0.13;0.13;;;10.10;99.90;;;;;;5078279;28;20033;-72
2022/11/10 04:09:07;;;;;;;0.20;0.20;;;10.10;99.90;;;;;;5084280;28;20055;-72
2022/11/10 04:17:02;;;;;;;0.20;0.20;;;10.10;99.90;;;;;;5071828;28;20049;-72
2022/11/10 04:19:28;;;;;;;0.10;0.10;;;10.10;99.90;;;;;;5086340;28;21105;-72
2022/11/10 04:21:54;;;;;;;0.20;0.20;;;10.10;99.90;;;;;;5094899;28;20050;-72
2022/11/10 04:24:20;;;;;;;0.20;0.20;;;10.10;99.90;;;;;;5077621;28;20063;-72
2022/11/10 04:26:47;;;;;;;0.20;0.20;;;10.10;99.90;;;;;;5088541;28;20036;-71
2022/11/10 04:29:17;;;;;;;0.10;0.10;;;10.50;99.90;;;;;;5078635;28;20040;-72
2022/11/10 04:31:43;;;;;;;0.20;0.20;;;10.10;99.90;;;;;;5075987;28;20063;-72
2022/11/10 04:34:13;;;;;;;0.20;0.20;;;10.10;99.90;;;;;;5074035;28;20040;-72
2022/11/10 04:36:42;;;;;;;0.20;0.20;;;10.10;99.90;;;;;;5082246;28;20048;-72
2022/11/10 04:39:08;;;;;;;0.20;0.20;;;10.10;99.90;;;;;;5087054;28;20148;-72
2022/11/10 04:41:35;;;;;;;0.20;0.20;;;10.10;99.90;;;;;;5087687;28;20040;-72
2022/11/10 04:44:01;;;;;;;0.20;0.20;;;10.50;99.90;;;;;;5086796;28;20075;-72
2022/11/10 04:46:35;;;;;;;0.10;0.10;;;10.10;99.90;;;;;;5086584;28;20080;-72
2022/11/10 04:49:03;;;;;;;0.20;0.20;;;10.10;99.90;;;;;;5086510;28;20040;-72
2022/11/10 04:51:31;;;;;;;0.10;0.10;;;10.40;99.90;;;;;;5089149;28;20048;-73
2022/11/10 04:53:57;;;;;;;0.20;0.20;;;10.10;99.90;;;;;;5079936;28;20045;-71
2022/11/10 04:56:24;;;;;;;0.13;0.13;;;10.10;99.90;;;;;;5083465;28;20118;-71
2022/11/10 04:58:50;;;;;;;0.20;0.20;;;10.10;99.90;;;;;;5080874;28;20036;-72
2022/11/10 05:01:20;;;;;;;0.20;0.20;;;10.10;99.90;;;;;;5081192;28;20047;-72
2022/11/10 05:03:47;;;;;;;0.20;0.20;;;10.10;99.90;;;;;;5088550;28;20102;-72
2022/11/10 05:06:13;;;;;;;0.10;0.10;;;10.20;99.90;;;;;;5089710;28;20036;-72
2022/11/10 05:08:40;;;;;;;0.20;0.20;;;10.10;99.90;;;;;;5088330;28;20626;-71
2022/11/10 05:11:06;;;;;;;0.20;0.20;;;10.10;99.90;;;;;;5085568;28;20503;-71
2022/11/10 05:13:32;;;;;;;0.10;0.10;;;10.10;99.90;;;;;;5084130;28;20067;-72
2022/11/10 05:15:57;;;;;;;0.10;0.10;;;10.20;99.90;;;;;;5088432;28;20120;-72
2022/11/10 05:18:23;;;;;;;0.20;0.20;;;10.20;99.90;;;;;;5088864;28;20048;-72
2022/11/10 05:20:49;;;;;;;0.20;0.20;;;10.30;99.90;;;;;;5086372;28;20051;-72
2022/11/10 05:25:59;;;;;;;0.20;0.20;;;10.20;99.90;;;;;;5075035;28;20052;-71
2022/11/10 05:28:25;;;;;;;0.10;0.10;;;10.50;99.90;;;;;;5079245;28;20043;-71
2022/11/10 05:30:51;;;;;;;0.20;0.20;;;10.20;99.90;;;;;;5082977;28;20060;-72
2022/11/10 05:33:17;;;;;;;0.10;0.10;;;10.30;99.90;;;;;;5083424;28;20037;-72
2022/11/10 05:35:43;;;;;;;0.15;0.15;;;10.30;99.90;;;;;;5077189;28;20450;-72
2022/11/10 05:38:08;;;;;;;0.20;0.20;;;10.30;99.90;;;;;;5070325;28;20071;-71
2022/11/10 05:40:34;;;;;;;0.10;0.10;;;10.30;99.90;;;;;;5077967;28;20115;-72
2022/11/10 05:43:00;;;;;;;0.20;0.20;;;10.30;99.90;;;;;;5080517;28;20044;-71
2022/11/10 05:45:27;;;;;;;0.20;0.20;;;10.30;99.90;;;;;;5091377;28;20083;-71
2022/11/10 05:47:53;;;;;;;0.10;0.10;;;10.30;99.90;;;;;;5090713;28;20040;-71
2022/11/10 05:50:20;;;;;;;0.17;0.17;;;10.30;99.90;;;;;;5075062;28;20069;-72
2022/11/10 05:52:49;;;;;;;0.20;0.20;;;10.30;99.90;;;;;;5092216;28;20552;-72
2022/11/10 05:55:16;;;;;;;0.20;0.20;;;10.40;99.90;;;;;;5091570;28;20449;-72
2022/11/10 05:57:44;;;;;;;0.17;0.17;;;10.40;99.90;;;;;;5087127;28;20032;-72
2022/11/10 06:00:11;;;;;;;0.20;0.20;;;10.40;99.90;;;;;;5089158;28;20059;-71
2022/11/10 06:02:36;;;;;;;0.20;0.20;;;10.40;99.90;;;;;;5088866;28;20067;-72
2022/11/10 06:05:02;;;;;;;0.20;0.20;;;10.40;99.90;;;;;;5087916;28;20071;-72
2022/11/10 06:07:28;;;;;;;0.20;0.20;;;10.40;99.90;;;;;;5076945;28;20094;-72
2022/11/10 06:09:53;;;;;;;0.20;0.20;;;10.40;99.90;;;;;;5090334;28;20047;-72
2022/11/10 06:12:19;;;;;;;0.20;0.20;;;10.40;99.90;;;;;;5087052;28;20139;-71
2022/11/10 06:14:45;;;;;;;0.20;0.20;;;10.40;99.90;;;;;;5091929;28;20040;-72
2022/11/10 06:17:10;;;;;;;0.20;0.20;;;10.40;99.90;;;;;;5082505;28;20093;-72
2022/11/10 06:19:36;;;;;;;0.20;0.20;;;10.40;99.90;;;;;;5072077;28;20441;-72
2022/11/10 06:22:01;;;;;;;0.17;0.17;;;10.40;99.90;;;;;;5076385;28;20048;-72
2022/11/10 06:24:27;;;;;;;0.10;0.10;;;10.40;99.90;;;;;;5086148;28;20402;-70
2022/11/10 06:26:52;;;;;;;0.15;0.15;;;10.40;99.90;;;;;;5091134;28;20570;-70
2022/11/10 06:29:18;;;;;;;0.13;0.13;;;10.40;99.90;;;;;;5089258;28;20108;-70
2022/11/10 06:31:44;;;;;;;0.20;0.20;;;10.40;99.90;;;;;;5081435;28;20045;-71
2022/11/10 06:34:09;;;;;;;0.20;0.20;;;10.50;99.90;;;;;;5076396;28;20047;-71
2022/11/10 06:36:35;;;;;;;0.10;0.10;;;10.70;99.90;;;;;;5083928;28;20126;-71
2022/11/10 06:39:00;;;;;;;0.20;0.20;;;10.40;99.90;;;;;;5084263;28;20046;-71
2022/11/10 06:41:26;;;;;;;0.20;0.20;;;10.40;99.90;;;;;;5083651;28;20071;-71
2022/11/10 06:43:52;;;;;;;0.20;0.20;;;10.40;99.90;;;;;;5072912;28;20054;-71
2022/11/10 06:46:17;;;;;;;0.15;0.15;;;10.40;99.90;;;;;;5077800;28;20063;-71
2022/11/10 06:48:43;;;;;;;0.20;0.20;;;10.50;99.90;;;;;;5083530;28;20039;-71
2022/11/10 06:51:08;;;;;;;0.13;0.13;;;10.50;99.90;;;;;;5077590;28;20446;-71
2022/11/10 06:53:34;;;;;;;0.17;0.17;;;10.50;99.90;;;;;;5082215;28;20179;-71
2022/11/10 06:56:00;;;;;;;0.20;0.20;;;10.50;99.90;;;;;;5071857;28;20050;-71
2022/11/10 06:58:25;;;;;;;0.10;0.10;;;10.50;99.90;;;;;;5078881;28;20110;-71
2022/11/10 07:00:51;;;;;;;0.15;0.15;;;10.50;99.90;;;;;;5088492;28;20040;-72
2022/11/10 07:03:16;;;;;;;0.20;0.20;;;10.50;99.90;;;;;;5080958;28;20244;-71
2022/11/10 07:05:42;;;;;;;0.20;0.20;;;10.60;99.90;;;;;;5078436;28;20600;-72
2022/11/10 07:08:15;;;;;;;0.20;0.20;;;10.60;99.90;;;;;;5086267;28;20044;-71
2022/11/10 07:10:45;;;;;;;0.20;0.20;;;10.60;99.90;;;;;;5091624;28;20044;-71
2022/11/10 07:13:11;;;;;;;0.20;0.20;;;10.60;99.90;;;;;;5088156;28;20080;-71
2022/11/10 07:15:36;;;;;;;0.20;0.20;;;10.60;99.90;;;;;;5086831;28;20531;-71
2022/11/10 07:18:03;;;;;;;0.20;0.20;;;10.70;99.90;;;;;;5090002;28;20048;-71
2022/11/10 07:20:30;;;;;;;0.20;0.20;;;10.70;99.90;;;;;;5081487;28;20044;-72
2022/11/10 07:23:00;;;;;;;0.10;0.10;;;10.70;99.90;;;;;;5082321;28;20050;-72
2022/11/10 07:25:28;;;;;;;0.13;0.13;;;10.80;99.90;;;;;;5072160;28;20075;-71
2022/11/10 07:27:55;;;;;;;0.20;0.20;;;11.00;99.90;;;;;;5073566;28;20855;-73
2022/11/10 07:30:21;;;;;;;0.20;0.20;;;10.70;99.90;;;;;;5078056;28;20506;-72
2022/11/10 07:32:47;;;;;;;0.20;0.20;;;10.70;99.90;;;;;;5077195;28;20056;-72
2022/11/10 07:35:12;;;;;;;0.20;0.20;;;10.70;99.90;;;;;;5079597;28;20093;-72
2022/11/10 07:37:38;;;;;;;0.20;0.20;;;10.70;99.90;;;;;;5074302;28;20077;-72
2022/11/10 07:40:04;;;;;;;0.20;0.20;;;10.70;99.90;;;;;;5072122;28;20047;-72
2022/11/10 07:42:29;;;;;;;0.20;0.20;;;10.70;99.90;;;;;;5076228;28;20043;-72
2022/11/10 07:44:58;;;;;;;0.20;0.20;;;10.70;99.90;;;;;;5086443;28;20048;-72
2022/11/10 07:47:23;;;;;;;0.20;0.20;;;10.70;99.90;;;;;;5072882;28;20028;-72
2022/11/10 07:49:49;;;;;;;0.20;0.20;;;10.70;99.90;;;;;;5079711;28;20437;-72
2022/11/10 07:52:14;;;;;;;0.10;0.10;;;10.70;99.90;;;;;;5081676;28;20044;-72
2022/11/10 07:54:40;;;;;;;0.20;0.20;;;10.70;99.90;;;;;;5074882;28;20445;-72
2022/11/10 07:57:06;;;;;;;0.20;0.20;;;10.70;99.90;;;;;;5070741;28;20052;-72
2022/11/10 07:59:31;;;;;;;0.10;0.10;;;10.70;99.90;;;;;;5075512;28;20048;-72
2022/11/10 08:01:57;;;;;;;0.20;0.20;;;10.80;99.90;;;;;;5081001;28;20043;-72
2022/11/10 08:04:22;;;;;;;0.10;0.10;;;10.70;99.90;;;;;;5084548;28;20084;-72
2022/11/10 08:06:48;;;;;;;0.20;0.20;;;10.70;99.90;;;;;;5076036;28;20063;-73
2022/11/10 08:09:13;;;;;;;0.20;0.20;;;10.70;99.90;;;;;;5077456;28;20036;-73
2022/11/10 08:11:39;;;;;;;0.10;0.10;;;10.70;99.90;;;;;;5078564;28;20044;-73
2022/11/10 08:14:05;;;;;;;0.20;0.20;;;10.70;99.90;;;;;;5096251;28;20081;-72
2022/11/10 08:16:31;;;;;;;0.10;0.10;;;10.70;99.90;;;;;;5085891;28;20048;-73
2022/11/10 08:18:56;;;;;;;0.10;0.10;;;10.70;99.90;;;;;;5084589;28;20044;-72
2022/11/10 08:21:22;;;;;;;0.20;0.20;;;10.80;99.90;;;;;;5083155;28;20037;-73
2022/11/10 08:23:48;;;;;;;0.30;0.30;;;10.80;99.90;;;;;;5073574;28;20044;-72
2022/11/10 08:26:16;;;;;;;0.10;0.10;;;10.90;99.90;;;;;;5086601;28;20058;-73
2022/11/10 08:28:43;;;;;;;0.17;0.17;;;10.90;99.90;;;;;;5088648;28;20040;-73
2022/11/10 08:31:08;;;;;;;0.20;0.20;;;10.90;99.90;;;;;;5085266;28;20055;-73
2022/11/10 08:33:37;;;;;;;0.20;0.20;;;11.00;99.90;;;;;;5088742;28;20040;-72
2022/11/10 08:36:03;;;;;;;0.10;0.10;;;10.90;99.90;;;;;;5086994;28;20059;-72
2022/11/10 08:38:28;;;;;;;0.20;0.20;;;11.00;99.90;;;;;;5084819;28;20032;-73
2022/11/10 08:40:56;;;;;;;0.10;0.10;;;11.10;99.90;;;;;;5089696;28;20101;-73
2022/11/10 08:43:22;;;;;;;0.20;0.20;;;11.10;99.90;;;;;;5088753;28;20075;-73
2022/11/10 08:45:47;;;;;;;0.10;0.10;;;11.20;99.90;;;;;;5078309;28;21759;-72
2022/11/10 08:48:19;;;;;;;0.20;0.20;;;11.20;99.90;;;;;;5083640;28;20040;-73
2022/11/10 08:50:46;;;;;;;0.10;0.10;;;11.20;99.90;;;;;;5088866;28;20079;-73
2022/11/10 08:53:13;;;;;;;0.10;0.10;;;11.30;99.90;;;;;;5088784;28;20131;-73
2022/11/10 08:55:40;;;;;;;0.10;0.10;;;11.30;99.90;;;;;;5087603;28;20044;-72
2022/11/10 08:58:07;;;;;;;0.20;0.20;;;11.30;99.90;;;;;;5087009;28;20075;-73
2022/11/10 09:00:33;;;;;;;0.20;0.20;;;11.40;99.90;;;;;;5081810;28;20052;-73
2022/11/10 09:03:05;;;;;;;0.20;0.20;;;11.40;99.90;;;;;;5086552;28;20051;-73
2022/11/10 09:05:32;;;;;;;0.10;0.10;;;11.30;99.90;;;;;;5084167;28;20153;-73
2022/11/10 09:07:57;;;;;;;0.20;0.20;;;11.60;99.90;;;;;;5074768;28;20036;-73
2022/11/10 09:10:23;;;;;;;0.20;0.20;;;11.50;99.90;;;;;;5087270;28;20514;-73
2022/11/10 09:12:48;;;;;;;0.10;0.10;;;11.60;99.90;;;;;;5086452;28;20032;-73
2022/11/10 09:15:14;;;;;;;0.10;0.10;;;11.60;99.90;;;;;;5085162;28;20148;-73
2022/11/10 09:17:40;;;;;;;0.13;0.13;;;11.70;99.90;;;;;;5087762;28;20043;-73
2022/11/10 09:20:08;;;;;;;0.20;0.20;;;11.70;99.90;;;;;;5092512;28;20047;-73
2022/11/10 09:22:35;;;;;;;0.20;0.20;;;11.80;99.90;;;;;;5084830;28;20044;-72
2022/11/10 09:25:01;;;;;;;0.15;0.15;;;11.90;99.90;;;;;;5087638;28;20061;-73
2022/11/10 09:27:27;;;;;;;0.17;0.17;;;11.90;99.90;;;;;;5090570;28;20097;-73
2022/11/10 09:29:52;;;;;;;0.20;0.20;;;11.90;99.90;;;;;;5091018;28;20094;-73
2022/11/10 09:32:18;;;;;;;0.20;0.20;;;12.50;99.90;;;;;;5092937;28;20059;-73
2022/11/10 09:34:44;;;;;;;0.10;0.10;;;12.30;99.90;;;;;;5092337;28;20047;-73
2022/11/10 09:37:09;;;;;;;0.20;0.20;;;12.20;99.90;;;;;;5087165;28;20067;-73
2022/11/10 09:39:35;;;;;;;0.17;0.17;;;12.20;99.90;;;;;;5078634;28;20071;-73
2022/11/10 09:42:02;;;;;;;0.20;0.20;;;12.30;99.90;;;;;;5091534;28;20492;-73
2022/11/10 09:44:54;;;;;;;0.10;0.10;;;12.30;99.90;;;;;;5107919;27;20069;-73
2022/11/10 09:47:30;;;;;;;0.15;0.15;;;12.30;99.90;;;;;;5090777;28;20047;-73
2022/11/10 09:50:00;;;;;;;0.20;0.20;;;12.70;99.90;;;;;;5092169;28;20040;-73
2022/11/10 09:52:30;;;;;;;0.20;0.20;;;12.40;99.90;;;;;;5092410;28;20395;-73
2022/11/10 09:55:02;;;;;;;0.20;0.20;;;12.40;99.90;;;;;;5090341;28;20503;-73
2022/11/10 09:57:28;;;;;;;0.10;0.10;;;12.50;99.90;;;;;;5092070;28;20129;-73
2022/11/10 09:59:54;;;;;;;0.20;0.20;;;12.50;99.90;;;;;;5090350;28;20047;-73
2022/11/10 10:02:42;;;;;;;0.10;0.10;;;12.50;99.90;;;;;;5090391;28;20044;-73
2022/11/10 10:05:31;;;;;;;0.17;0.17;;;12.50;99.90;;;;;;5087639;28;20451;-72
2022/11/10 10:08:22;;;;;;;0.20;0.20;;;12.40;99.90;;;;;;5056725;28;20055;-71
2022/11/10 10:11:09;;;;;;;0.10;0.10;;;12.40;99.90;;;;;;5090485;28;20449;-72
2022/11/10 10:14:01;;;;;;;0.20;0.20;;;12.50;99.90;;;;;;5090760;28;20090;-72
2022/11/10 10:16:41;;;;;;;0.20;0.20;;;12.50;99.90;;;;;;5088676;28;20386;-73
2022/11/10 10:19:15;;;;;;;0.20;0.20;;;12.50;99.90;;;;;;5090527;28;20377;-73
2022/11/10 10:21:43;;;;;;;0.20;0.20;;;12.50;99.90;;;;;;5090768;28;20090;-74
2022/11/10 10:24:15;;;;;;;0.20;0.20;;;12.60;99.90;;;;;;5090299;28;20047;-74
2022/11/10 10:26:49;;;;;;;0.20;0.20;;;12.80;99.90;;;;;;5086644;28;20044;-74
2022/11/10 10:29:38;;;;;;;0.20;0.20;;;12.60;99.90;;;;;;5084551;28;20067;-74
2022/11/10 10:32:11;;;;;;;0.10;0.10;;;12.60;99.90;;;;;;5090172;28;20062;-74
2022/11/10 10:34:37;;;;;;;0.20;0.20;;;12.70;99.90;;;;;;5091734;28;20495;-74
2022/11/10 10:37:02;;;;;;;0.20;0.20;;;12.70;99.90;;;;;;5090045;28;20044;-74
2022/11/10 10:39:38;;;;;;;0.20;0.20;;;12.70;99.90;;;;;;5082150;28;20470;-74
2022/11/10 10:42:22;;;;;;;0.10;0.10;;;12.80;99.90;;;;;;5090930;28;20060;-74
2022/11/10 10:45:19;;;;;;;0.10;0.10;;;12.90;99.90;;;;;;5082221;28;20067;-74
2022/11/10 10:47:46;;;;;;;0.20;0.20;;;13.00;99.90;;;;;;5092783;28;20519;-74
2022/11/10 10:50:33;;;;;;;0.20;0.20;;;13.10;99.90;;;;;;5091280;28;20040;-74
2022/11/10 10:53:09;;;;;;;0.10;0.10;;;13.20;99.90;;;;;;5093661;28;20040;-74
2022/11/10 10:55:36;;;;;;;0.20;0.20;;;13.20;99.90;;;;;;5094885;28;20499;-74
2022/11/10 10:58:04;;;;;;;0.17;0.17;;;13.30;99.90;;;;;;5086761;28;20365;-74
2022/11/10 11:00:32;;;;;;;0.10;0.10;;;13.40;99.90;;;;;;5075089;28;20037;-74
2022/11/10 11:03:02;;;;;;;0.20;0.20;;;13.40;99.90;;;;;;5071301;28;20102;-74
2022/11/10 11:05:28;;;;;;;0.17;0.17;;;13.40;99.90;;;;;;5070144;28;20530;-75
2022/11/10 11:07:59;;;;;;;0.20;0.20;;;13.30;99.90;;;;;;5078569;28;20040;-75
2022/11/10 11:10:32;;;;;;;0.20;0.20;;;13.40;99.90;;;;;;5075604;28;20542;-75
2022/11/10 11:13:22;;;;;;;0.10;0.10;;;13.40;99.90;;;;;;5069347;28;20502;-75
2022/11/10 11:15:59;;;;;;;0.10;0.10;;;13.40;99.90;;;;;;5099359;28;20052;-74
2022/11/10 11:18:27;;;;;;;0.10;0.10;;;13.40;99.90;;;;;;5083958;28;20119;-76
2022/11/10 11:21:35;;;;;;;0.10;0.10;;;13.50;99.90;;;;;;5084356;28;20051;-74
2022/11/10 11:24:42;;;;;;;0.20;0.20;;;13.50;99.90;;;;;;5073000;28;20040;-75
2022/11/10 11:27:43;;;;;;;0.20;0.20;;;13.50;99.90;;;;;;5060135;28;20388;-75
2022/11/10 11:30:18;;;;;;;0.20;0.20;;;13.50;99.90;;;;;;5046139;28;20049;-75
2022/11/10 11:33:10;;;;;;;0.20;0.20;;;13.50;99.90;;;;;;5077065;28;20666;-75
2022/11/10 11:36:02;;;;;;;0.10;0.10;;;13.40;99.90;;;;;;5077175;28;20046;-75
2022/11/10 11:38:33;;;;;;;0.10;0.10;;;13.40;99.90;;;;;;5089170;28;20082;-74
2022/11/10 11:41:26;;;;;;;0.20;0.20;;;13.40;99.90;;;;;;5084079;28;20048;-74
2022/11/10 11:44:33;;;;;;;0.20;0.20;;;13.40;99.90;;;;;;5072577;28;20129;-73
2022/11/10 11:47:33;;;;;;;0.10;0.10;;;13.40;99.90;;;;;;5078839;28;20052;-73
2022/11/10 11:50:28;;;;;;;0.20;0.20;;;13.40;99.90;;;;;;5084481;28;20054;-74
2022/11/10 11:52:59;;;;;;;0.20;0.20;;;13.40;99.90;;;;;;5062123;28;20044;-73
2022/11/10 11:55:35;;;;;;;;;;;13.50;99.90;;;;;;5088035;28;20122;-74
2022/11/10 11:58:31;;;;;;;0.20;0.20;;;13.40;99.90;;;;;;5065547;28;19920;-74
2022/11/10 12:01:26;;;;;;;0.10;0.10;;;13.40;99.90;;;;;;5077002;28;20547;-74
2022/11/10 12:04:11;;;;;;;0.20;0.20;;;13.40;99.90;;;;;;5104259;27;20079;-74
2022/11/10 12:06:42;;;;;;;0.20;0.20;;;13.40;99.90;;;;;;5071025;28;20892;-74
2022/11/10 12:09:16;;;;;;;0.10;0.10;;;13.50;99.90;;;;;;5073783;28;20037;-75
2022/11/10 12:12:13;;;;;;;0.20;0.20;;;13.50;99.90;;;;;;5080554;28;20433;-74
2022/11/10 12:15:00;;;;;;;0.20;0.20;;;13.50;99.90;;;;;;5080850;28;20050;-74
2022/11/10 12:17:50;;;;;;;0.20;0.20;;;13.60;99.90;;;;;;5077870;28;20032;-74
2022/11/10 12:20:36;;;;;;;0.20;0.20;;;13.50;99.90;;;;;;5072414;28;20040;-75
2022/11/10 12:23:07;;;;;;;0.20;0.20;;;13.60;99.90;;;;;;5087068;28;20096;-74
2022/11/10 12:25:41;;;;;;;0.10;0.10;;;13.60;99.90;;;;;;5089175;28;20104;-74
2022/11/10 12:28:10;;;;;;;0.20;0.20;;;13.60;99.90;;;;;;5086848;28;20048;-74
2022/11/10 12:30:38;;;;;;;0.20;0.20;;;13.60;99.90;;;;;;5088019;28;20055;-75
2022/11/10 12:33:20;;;;;;;0.20;0.20;;;13.60;99.90;;;;;;5089944;28;20044;-74
2022/11/10 12:35:46;;;;;;;0.10;0.10;;;13.60;99.90;;;;;;5088322;28;20051;-75
2022/11/10 12:38:18;;;;;;;0.15;0.15;;;13.60;99.90;;;;;;5086230;28;20051;-75
2022/11/10 12:40:50;;;;;;;0.15;0.15;;;13.60;99.90;;;;;;5068695;28;20101;-74
2022/11/10 12:43:34;;;;;;;0.20;0.20;;;14.20;99.90;;;;;;5069186;28;20063;-76
2022/11/10 12:46:07;;;;;;;0.20;0.20;;;13.70;99.90;;;;;;5074550;28;20394;-73
2022/11/10 12:49:09;;;;;;;0.17;0.17;;;13.70;99.90;;;;;;5089363;28;20528;-74
2022/11/10 12:51:48;;;;;;;0.20;0.20;;;13.70;99.90;;;;;;5066387;28;20140;-74
2022/11/10 12:54:16;;;;;;;0.20;0.20;;;13.70;99.90;;;;;;5067982;28;20049;-74
2022/11/10 12:56:52;;;;;;;0.10;0.10;;;13.80;99.90;;;;;;5075212;28;20511;-75
2022/11/10 12:59:21;;;;;;;0.17;0.17;;;13.80;99.90;;;;;;5081674;28;20244;-75
2022/11/10 13:02:09;;;;;;;0.20;0.20;;;13.80;99.90;;;;;;5087973;28;20113;-74
2022/11/10 13:04:35;;;;;;;0.20;0.20;;;13.80;99.90;;;;;;5079603;28;20044;-74
2022/11/10 13:07:03;;;;;;;0.10;0.10;;;13.80;99.90;;;;;;5088407;28;20052;-74
2022/11/10 13:09:32;;;;;;;0.10;0.10;;;14.00;99.90;;;;;;5079796;28;20114;-75
2022/11/10 13:12:13;;;;;;;0.15;0.15;;;13.90;99.90;;;;;;5076524;28;20442;-74
2022/11/10 13:14:38;;;;;;;0.20;0.20;;;13.80;99.90;;;;;;5076540;28;20055;-74